Time;durP1;ratioP1;P1;durP2;ratioP2;P2;SDS_P1;SDS_P2;PMS_P1;PMS_P2;Temp;Humidity;BMP_temperature;BMP_pressure;BME280_temperature;BME280_humidity;BME280_pressure;Samples;Min_cycle;Max_cycle;Signal;HPM_P1;HPM_P2
2023/06/22 00:01:06;;;;;;;10.50;8.90;;;;;;;;;;6146868;23;20392;-93
2023/06/22 00:03:35;;;;;;;10.13;8.70;;;;;;;;;;6147300;23;20434;-93
2023/06/22 00:06:04;;;;;;;10.23;9.17;;;;;;;;;;6147616;23;20395;-93
2023/06/22 00:08:30;;;;;;;11.93;9.37;;;;;;;;;;6146785;23;20380;-93
2023/06/22 00:10:56;;;;;;;9.80;8.90;;;;;;;;;;6170853;23;20340;-94
2023/06/22 00:13:28;;;;;;;16.00;11.10;;;;;;;;;;6148259;23;20380;-93
2023/06/22 00:15:57;;;;;;;11.53;9.23;;;;;;;;;;6147057;23;20390;-93
2023/06/22 00:18:27;;;;;;;9.30;8.20;;;;;;;;;;6148432;23;20391;-93
2023/06/22 00:21:16;;;;;;;;;;;;;;;;;;;;;
2023/06/22 00:23:44;;;;;;;9.27;8.37;;;;;;;;;;6192820;23;20427;-93
2023/06/22 00:26:11;;;;;;;11.90;9.17;;;;;;;;;;6171184;23;20471;-94
2023/06/22 00:28:37;;;;;;;9.73;8.63;;;;;;;;;;6134083;23;20405;-93
2023/06/22 00:31:03;;;;;;;9.57;8.57;;;;;;;;;;6108894;23;20378;-93
2023/06/22 00:33:29;;;;;;;10.27;7.80;;;;;;;;;;6107736;23;20944;-93
2023/06/22 00:35:55;;;;;;;9.47;8.33;;;;;;;;;;6107439;23;20382;-92
2023/06/22 00:38:21;;;;;;;10.13;8.23;;;;;;;;;;6108895;23;20433;-93
2023/06/22 00:40:47;;;;;;;10.73;9.10;;;;;;;;;;6108647;23;20398;-92
2023/06/22 00:43:13;;;;;;;8.90;7.97;;;;;;;;;;6108583;23;20492;-92
2023/06/22 00:45:41;;;;;;;10.97;9.50;;;;;;;;;;6107562;23;20780;-93
2023/06/22 00:48:08;;;;;;;9.53;8.53;;;;;;;;;;6112036;23;20790;-93
2023/06/22 00:50:35;;;;;;;11.30;9.73;;;;;;;;;;6106853;23;20382;-93
2023/06/22 00:53:07;;;;;;;11.23;9.57;;;;;;;;;;6110334;23;20902;-93
2023/06/22 00:55:37;;;;;;;12.43;10.47;;;;;;;;;;6106790;23;20378;-92
2023/06/22 00:58:05;;;;;;;12.87;10.23;;;;;;;;;;6114537;23;20390;-92
2023/06/22 01:00:32;;;;;;;10.13;9.00;;;;;;;;;;6109589;23;20547;-93
2023/06/22 01:02:58;;;;;;;10.90;8.67;;;;;;;;;;6109989;23;20390;-92
2023/06/22 01:05:24;;;;;;;9.17;8.03;;;;;;;;;;6107719;23;20460;-92
2023/06/22 01:07:52;;;;;;;11.10;9.53;;;;;;;;;;6109707;23;20393;-93
2023/06/22 01:10:22;;;;;;;10.77;8.93;;;;;;;;;;6134033;23;20496;-93
2023/06/22 01:12:59;;;;;;;11.17;8.37;;;;;;;;;;6134459;23;20378;-93
2023/06/22 01:15:30;;;;;;;9.60;8.43;;;;;;;;;;6111323;23;20421;-93
2023/06/22 01:17:58;;;;;;;15.57;10.03;;;;;;;;;;6112658;23;20884;-93
2023/06/22 01:20:24;;;;;;;10.30;8.73;;;;;;;;;;6109685;23;20393;-93
2023/06/22 01:23:01;;;;;;;12.40;8.90;;;;;;;;;;6108458;23;20390;-91
2023/06/22 01:25:39;;;;;;;12.07;7.53;;;;;;;;;;6142540;23;20391;-92
2023/06/22 01:28:18;;;;;;;8.67;7.77;;;;;;;;;;6171450;23;20386;-93
2023/06/22 01:31:03;;;;;;;11.50;8.63;;;;;;;;;;6144993;23;20368;-93
2023/06/22 01:33:38;;;;;;;11.17;9.27;;;;;;;;;;6154103;23;20364;-92
2023/06/22 01:36:10;;;;;;;10.00;9.00;;;;;;;;;;6145460;23;20388;-92
2023/06/22 01:38:40;;;;;;;10.37;7.80;;;;;;;;;;6171603;23;20364;-93
2023/06/22 01:41:06;;;;;;;9.13;8.23;;;;;;;;;;6144577;23;20387;-93
2023/06/22 01:43:32;;;;;;;10.00;9.00;;;;;;;;;;6170524;23;20509;-93
2023/06/22 01:45:59;;;;;;;9.63;8.40;;;;;;;;;;6171373;23;20439;-93
2023/06/22 01:48:25;;;;;;;9.50;8.17;;;;;;;;;;6145760;23;20417;-93
2023/06/22 01:50:53;;;;;;;11.60;9.30;;;;;;;;;;6145940;23;20391;-93
2023/06/22 01:53:20;;;;;;;10.10;8.87;;;;;;;;;;6138577;23;20385;-94
2023/06/22 01:55:52;;;;;;;13.10;8.23;;;;;;;;;;6138289;23;20464;-93
2023/06/22 01:58:21;;;;;;;9.93;8.43;;;;;;;;;;6141222;23;20381;-93
2023/06/22 02:01:03;;;;;;;10.27;8.63;;;;;;;;;;6138597;23;20409;-93
2023/06/22 02:03:36;;;;;;;9.97;8.37;;;;;;;;;;6139722;23;20507;-94
2023/06/22 02:06:11;;;;;;;10.00;8.80;;;;;;;;;;6132601;23;20444;-94
2023/06/22 02:08:39;;;;;;;13.13;9.33;;;;;;;;;;6133880;23;20456;-93
2023/06/22 02:11:08;;;;;;;12.57;9.77;;;;;;;;;;6134735;23;20405;-93
2023/06/22 02:13:35;;;;;;;8.30;7.50;;;;;;;;;;6135136;23;20427;-92
2023/06/22 02:16:03;;;;;;;8.77;7.67;;;;;;;;;;6139169;23;20397;-93
2023/06/22 02:18:29;;;;;;;10.27;7.87;;;;;;;;;;6139210;23;20491;-93
2023/06/22 02:20:55;;;;;;;9.30;8.30;;;;;;;;;;6137875;23;20389;-93
2023/06/22 02:23:21;;;;;;;10.40;9.30;;;;;;;;;;6140475;23;20424;-92
2023/06/22 02:25:47;;;;;;;11.30;8.47;;;;;;;;;;6144006;23;20377;-93
2023/06/22 02:28:14;;;;;;;10.70;9.13;;;;;;;;;;6135126;23;20382;-93
2023/06/22 02:30:44;;;;;;;8.60;7.63;;;;;;;;;;6084160;23;20401;-93
2023/06/22 02:33:10;;;;;;;11.10;8.70;;;;;;;;;;6086250;23;20366;-94
2023/06/22 02:35:45;;;;;;;10.30;9.17;;;;;;;;;;6083853;23;20374;-93
2023/06/22 02:38:17;;;;;;;9.33;8.33;;;;;;;;;;6091701;23;20354;-93
2023/06/22 02:40:49;;;;;;;9.67;8.23;;;;;;;;;;6084741;23;20386;-92
2023/06/22 02:43:15;;;;;;;9.93;7.87;;;;;;;;;;6084262;23;20421;-93
2023/06/22 02:45:42;;;;;;;10.57;9.07;;;;;;;;;;6083254;23;20881;-93
2023/06/22 02:48:11;;;;;;;13.90;8.00;;;;;;;;;;6086793;23;20411;-93
2023/06/22 02:50:37;;;;;;;10.07;8.80;;;;;;;;;;6082427;23;20890;-93
2023/06/22 02:53:03;;;;;;;8.93;8.03;;;;;;;;;;6081276;23;20396;-93
2023/06/22 02:55:29;;;;;;;12.93;9.27;;;;;;;;;;6082586;23;20386;-93
2023/06/22 02:57:57;;;;;;;9.57;8.60;;;;;;;;;;6083669;23;20437;-94
2023/06/22 03:00:25;;;;;;;9.23;8.03;;;;;;;;;;6142425;23;20380;-93
2023/06/22 03:02:50;;;;;;;9.63;7.57;;;;;;;;;;6144857;23;20520;-93
2023/06/22 03:05:20;;;;;;;11.57;8.80;;;;;;;;;;6142194;23;20752;-93
2023/06/22 03:07:46;;;;;;;10.23;8.60;;;;;;;;;;6145517;23;20743;-93
2023/06/22 03:10:12;;;;;;;9.70;8.67;;;;;;;;;;6141406;23;20407;-92
2023/06/22 03:12:38;;;;;;;9.90;8.93;;;;;;;;;;6173017;23;20372;-92
2023/06/22 03:15:08;;;;;;;11.90;9.00;;;;;;;;;;6142249;23;20857;-92
2023/06/22 03:17:34;;;;;;;9.30;8.40;;;;;;;;;;6144246;23;20800;-92
2023/06/22 03:20:08;;;;;;;11.30;9.37;;;;;;;;;;6140167;23;20379;-92
2023/06/22 03:22:35;;;;;;;10.23;8.83;;;;;;;;;;6142353;23;20418;-93
2023/06/22 03:25:01;;;;;;;10.67;8.17;;;;;;;;;;6141258;23;20704;-92
2023/06/22 03:27:27;;;;;;;8.97;8.03;;;;;;;;;;6144237;23;20387;-92
2023/06/22 03:29:57;;;;;;;12.23;8.10;;;;;;;;;;6141529;23;20445;-91
2023/06/22 03:32:24;;;;;;;12.43;8.80;;;;;;;;;;6142788;23;20392;-92
2023/06/22 03:34:50;;;;;;;9.57;8.17;;;;;;;;;;6141075;23;20462;-92
2023/06/22 03:37:19;;;;;;;12.77;8.23;;;;;;;;;;6144952;23;20383;-91
2023/06/22 03:39:45;;;;;;;9.40;8.30;;;;;;;;;;6142896;23;20397;-92
2023/06/22 03:42:37;;;;;;;10.83;8.20;;;;;;;;;;6148063;23;20399;-92
2023/06/22 03:45:03;;;;;;;10.20;8.07;;;;;;;;;;6166951;23;20907;-92
2023/06/22 03:47:29;;;;;;;12.30;9.43;;;;;;;;;;6142930;23;20400;-92
2023/06/22 03:49:58;;;;;;;10.67;7.73;;;;;;;;;;6140829;23;20478;-92
2023/06/22 03:52:25;;;;;;;9.37;8.30;;;;;;;;;;6141596;23;20383;-92
2023/06/22 03:54:57;;;;;;;11.00;9.90;;;;;;;;;;6142202;23;20445;-92
2023/06/22 03:57:23;;;;;;;10.10;9.03;;;;;;;;;;6143444;23;20372;-92
2023/06/22 03:59:50;;;;;;;11.80;9.07;;;;;;;;;;6143303;23;20435;-91
2023/06/22 04:02:16;;;;;;;11.37;9.97;;;;;;;;;;6143412;23;20395;-92
2023/06/22 04:04:42;;;;;;;11.47;8.93;;;;;;;;;;6140418;23;20491;-93
2023/06/22 04:07:08;;;;;;;10.03;9.07;;;;;;;;;;6142051;23;20380;-92
2023/06/22 04:09:34;;;;;;;9.50;8.50;;;;;;;;;;6142198;23;20399;-92
2023/06/22 04:12:06;;;;;;;12.00;8.87;;;;;;;;;;6141442;23;20396;-93
2023/06/22 04:14:33;;;;;;;11.60;8.67;;;;;;;;;;6151103;23;20438;-92
2023/06/22 04:16:59;;;;;;;11.93;9.70;;;;;;;;;;6141576;23;20396;-92
2023/06/22 04:19:25;;;;;;;11.30;8.80;;;;;;;;;;6145207;23;20395;-92
2023/06/22 04:21:51;;;;;;;9.03;8.00;;;;;;;;;;6141545;23;20387;-92
2023/06/22 04:24:21;;;;;;;10.03;9.03;;;;;;;;;;6140806;23;20435;-92
2023/06/22 04:26:54;;;;;;;9.20;8.30;;;;;;;;;;6142615;23;21108;-92
2023/06/22 04:29:20;;;;;;;11.90;8.83;;;;;;;;;;6169406;23;20363;-91
2023/06/22 04:31:50;;;;;;;11.00;9.17;;;;;;;;;;6144252;23;20392;-92
2023/06/22 04:34:17;;;;;;;10.83;8.67;;;;;;;;;;6170209;23;20376;-92
2023/06/22 04:36:43;;;;;;;14.27;9.23;;;;;;;;;;6145189;23;20399;-92
2023/06/22 04:39:12;;;;;;;10.87;9.77;;;;;;;;;;6146363;23;20485;-92
2023/06/22 04:41:44;;;;;;;14.03;9.53;;;;;;;;;;6145417;23;20431;-90
2023/06/22 04:44:10;;;;;;;10.77;9.70;;;;;;;;;;6145432;23;20427;-91
2023/06/22 04:46:38;;;;;;;10.37;9.03;;;;;;;;;;6167343;23;20404;-91
2023/06/22 04:51:41;;;;;;;12.00;9.77;;;;;;;;;;6223486;23;20414;-90
2023/06/22 04:54:09;;;;;;;10.23;8.50;;;;;;;;;;6172015;23;20810;-90
2023/06/22 04:56:35;;;;;;;12.67;9.50;;;;;;;;;;6172003;23;20405;-91
2023/06/22 04:59:02;;;;;;;10.40;9.30;;;;;;;;;;6198633;23;20371;-90
2023/06/22 05:01:30;;;;;;;10.17;9.20;;;;;;;;;;6195473;23;20402;-91
2023/06/22 05:04:01;;;;;;;11.37;9.63;;;;;;;;;;6173058;23;20415;-91
2023/06/22 05:06:27;;;;;;;11.57;9.13;;;;;;;;;;6170891;23;20367;-92
2023/06/22 05:08:59;;;;;;;13.30;10.10;;;;;;;;;;6173488;23;20397;-91
2023/06/22 05:11:28;;;;;;;11.00;9.90;;;;;;;;;;6172200;23;20429;-91
2023/06/22 05:13:57;;;;;;;11.63;10.13;;;;;;;;;;6172922;23;20383;-91
2023/06/22 05:16:26;;;;;;;11.20;9.43;;;;;;;;;;6173020;23;20395;-92
2023/06/22 05:19:02;;;;;;;14.93;10.43;;;;;;;;;;6175204;23;20359;-91
2023/06/22 05:21:31;;;;;;;11.33;10.13;;;;;;;;;;6173148;23;20446;-91
2023/06/22 05:24:02;;;;;;;10.63;9.50;;;;;;;;;;6171190;23;20426;-93
2023/06/22 05:26:28;;;;;;;11.10;9.63;;;;;;;;;;6195838;23;20383;-92
2023/06/22 05:28:54;;;;;;;11.90;9.20;;;;;;;;;;6136699;23;20377;-90
2023/06/22 05:31:20;;;;;;;10.43;9.23;;;;;;;;;;6113835;23;20427;-91
2023/06/22 05:33:46;;;;;;;12.20;10.37;;;;;;;;;;6111744;23;20861;-90
2023/06/22 05:36:12;;;;;;;9.80;8.90;;;;;;;;;;6112460;23;20389;-91
2023/06/22 05:38:40;;;;;;;11.47;9.43;;;;;;;;;;6112408;23;20420;-91
2023/06/22 05:41:06;;;;;;;13.27;10.10;;;;;;;;;;6138382;23;20861;-90
2023/06/22 05:43:32;;;;;;;10.77;9.50;;;;;;;;;;6112064;23;20478;-90
2023/06/22 05:45:58;;;;;;;11.03;9.80;;;;;;;;;;6115504;23;20388;-90
2023/06/22 05:48:24;;;;;;;11.80;8.87;;;;;;;;;;6138410;23;20393;-90
2023/06/22 05:50:50;;;;;;;16.17;9.27;;;;;;;;;;6113326;23;20412;-91
2023/06/22 05:53:16;;;;;;;11.17;8.13;;;;;;;;;;6113402;23;20468;-91
2023/06/22 05:55:42;;;;;;;12.97;9.43;;;;;;;;;;6197816;22;20485;-88
2023/06/22 05:58:08;;;;;;;11.27;10.10;;;;;;;;;;6168310;23;20386;-88
2023/06/22 06:00:35;;;;;;;12.07;9.67;;;;;;;;;;6194585;23;20387;-89
2023/06/22 06:03:04;;;;;;;10.53;8.97;;;;;;;;;;6172596;23;20398;-87
2023/06/22 06:05:33;;;;;;;12.90;9.47;;;;;;;;;;6158804;23;20381;-90
2023/06/22 06:08:03;;;;;;;9.90;7.53;;;;;;;;;;6159348;23;20385;-89
2023/06/22 06:10:32;;;;;;;9.30;8.30;;;;;;;;;;6155547;23;20469;-87
2023/06/22 06:12:58;;;;;;;9.27;8.30;;;;;;;;;;6155587;23;20411;-88
2023/06/22 06:15:24;;;;;;;10.70;8.30;;;;;;;;;;6154990;23;20841;-89
2023/06/22 06:17:50;;;;;;;13.93;8.13;;;;;;;;;;6156681;23;20709;-90
2023/06/22 06:20:18;;;;;;;9.80;8.80;;;;;;;;;;6158098;23;20393;-88
2023/06/22 06:22:44;;;;;;;9.10;7.63;;;;;;;;;;6155590;23;20773;-87
2023/06/22 06:25:15;;;;;;;11.80;8.30;;;;;;;;;;6157402;23;20479;-89
2023/06/22 06:27:41;;;;;;;8.37;7.23;;;;;;;;;;6157436;23;20469;-88
2023/06/22 06:30:08;;;;;;;11.70;7.97;;;;;;;;;;6158001;23;20385;-88
2023/06/22 06:32:33;;;;;;;11.80;7.73;;;;;;;;;;6130807;23;20381;-88
2023/06/22 06:34:59;;;;;;;9.00;7.30;;;;;;;;;;6159457;23;20409;-88
2023/06/22 06:37:25;;;;;;;9.03;8.17;;;;;;;;;;6193017;23;20383;-88
2023/06/22 06:39:51;;;;;;;10.87;7.77;;;;;;;;;;6171482;23;20397;-89
2023/06/22 06:42:19;;;;;;;9.53;6.80;;;;;;;;;;6194687;23;20368;-89
2023/06/22 06:44:46;;;;;;;8.30;6.20;;;;;;;;;;6168281;23;20419;-90
2023/06/22 06:47:12;;;;;;;9.23;7.33;;;;;;;;;;6194406;23;20383;-88
2023/06/22 06:49:38;;;;;;;9.60;6.97;;;;;;;;;;6168289;23;20870;-88
2023/06/22 06:52:05;;;;;;;8.20;6.03;;;;;;;;;;6192469;23;20364;-89
2023/06/22 06:54:31;;;;;;;7.40;6.60;;;;;;;;;;6166996;23;20375;-89
2023/06/22 06:56:57;;;;;;;8.37;6.80;;;;;;;;;;6192580;23;20696;-89
2023/06/22 06:59:23;;;;;;;8.30;6.90;;;;;;;;;;6166031;23;20440;-89
2023/06/22 07:01:49;;;;;;;9.57;6.67;;;;;;;;;;6195879;23;20398;-89
2023/06/22 07:04:15;;;;;;;13.77;6.67;;;;;;;;;;6168726;23;20415;-89
2023/06/22 07:06:41;;;;;;;9.40;7.23;;;;;;;;;;6170935;23;20379;-89
2023/06/22 07:09:08;;;;;;;7.60;6.77;;;;;;;;;;6170039;23;20426;-89
2023/06/22 07:11:35;;;;;;;8.17;6.90;;;;;;;;;;6170013;23;20384;-89
2023/06/22 07:14:01;;;;;;;7.67;6.87;;;;;;;;;;6168218;23;20385;-89
2023/06/22 07:16:28;;;;;;;8.27;6.70;;;;;;;;;;6171018;23;20383;-89
2023/06/22 07:18:54;;;;;;;7.37;6.57;;;;;;;;;;6168422;23;20456;-89
2023/06/22 07:21:20;;;;;;;6.90;6.10;;;;;;;;;;6169941;23;20363;-89
2023/06/22 07:23:46;;;;;;;9.20;7.00;;;;;;;;;;6168100;23;20415;-89
2023/06/22 07:26:12;;;;;;;9.47;6.30;;;;;;;;;;6167796;23;20382;-90
2023/06/22 07:28:40;;;;;;;7.73;6.93;;;;;;;;;;6167763;23;20428;-89
2023/06/22 07:31:06;;;;;;;8.00;7.20;;;;;;;;;;6195440;23;20367;-90
2023/06/22 07:33:32;;;;;;;10.47;7.13;;;;;;;;;;6168256;23;20462;-88
2023/06/22 07:35:58;;;;;;;9.57;7.50;;;;;;;;;;6167693;23;20640;-89
2023/06/22 07:38:24;;;;;;;9.93;6.50;;;;;;;;;;6169109;23;20375;-89
2023/06/22 07:40:52;;;;;;;9.07;6.67;;;;;;;;;;6168815;23;20379;-90
2023/06/22 07:43:18;;;;;;;8.20;6.50;;;;;;;;;;6168100;23;20383;-87
2023/06/22 07:45:51;;;;;;;7.40;6.20;;;;;;;;;;6167669;23;20387;-91
2023/06/22 07:48:17;;;;;;;10.57;6.50;;;;;;;;;;6168214;23;20375;-91
2023/06/22 07:50:45;;;;;;;10.10;6.83;;;;;;;;;;6167385;23;20391;-89
2023/06/22 07:53:11;;;;;;;8.63;6.47;;;;;;;;;;6167448;23;20386;-88
2023/06/22 07:55:37;;;;;;;9.00;6.97;;;;;;;;;;6167689;23;20423;-89
2023/06/22 07:58:03;;;;;;;9.13;7.07;;;;;;;;;;6167770;23;20383;-90
2023/06/22 08:00:29;;;;;;;9.47;6.47;;;;;;;;;;6192468;23;21113;-89
2023/06/22 08:02:55;;;;;;;10.40;6.37;;;;;;;;;;6170323;23;20375;-89
2023/06/22 08:05:21;;;;;;;9.20;6.53;;;;;;;;;;6169981;23;20443;-88
2023/06/22 08:07:47;;;;;;;10.10;7.20;;;;;;;;;;6172105;23;20386;-89
2023/06/22 08:10:13;;;;;;;9.40;6.70;;;;;;;;;;6168116;23;20516;-88
2023/06/22 08:12:42;;;;;;;8.67;5.90;;;;;;;;;;6171523;23;20371;-89
2023/06/22 08:15:08;;;;;;;7.27;6.23;;;;;;;;;;6169276;23;20929;-89
2023/06/22 08:17:34;;;;;;;7.40;6.07;;;;;;;;;;6169136;23;20411;-89
2023/06/22 08:20:00;;;;;;;9.50;5.87;;;;;;;;;;6168685;23;20635;-89
2023/06/22 08:22:27;;;;;;;8.30;6.30;;;;;;;;;;6170504;23;20417;-89
2023/06/22 08:24:53;;;;;;;8.57;6.07;;;;;;;;;;6191820;23;20488;-89
2023/06/22 08:27:21;;;;;;;10.73;7.07;;;;;;;;;;6193568;23;20378;-89
2023/06/22 08:29:47;;;;;;;9.10;7.33;;;;;;;;;;6169180;23;20732;-88
2023/06/22 08:32:13;;;;;;;8.93;6.93;;;;;;;;;;6169682;23;20375;-89
2023/06/22 08:34:42;;;;;;;7.30;6.00;;;;;;;;;;6168913;23;20928;-89
2023/06/22 08:37:08;;;;;;;10.10;6.20;;;;;;;;;;6172282;23;20448;-89
2023/06/22 08:39:34;;;;;;;7.47;5.87;;;;;;;;;;6167712;23;20390;-89
2023/06/22 08:42:00;;;;;;;7.17;5.57;;;;;;;;;;6168118;23;20414;-89
2023/06/22 08:44:26;;;;;;;9.60;5.63;;;;;;;;;;6168268;23;20781;-89
2023/06/22 08:46:52;;;;;;;8.37;6.07;;;;;;;;;;6168703;23;20379;-90
2023/06/22 08:49:18;;;;;;;9.27;6.00;;;;;;;;;;6169574;23;20441;-90
2023/06/22 08:51:45;;;;;;;8.93;5.30;;;;;;;;;;6168993;23;20375;-90
2023/06/22 08:54:11;;;;;;;9.13;6.27;;;;;;;;;;6169598;23;20395;-90
2023/06/22 08:56:37;;;;;;;10.73;6.00;;;;;;;;;;6169582;23;20454;-90
2023/06/22 08:59:03;;;;;;;8.93;6.07;;;;;;;;;;6169210;23;20371;-89
2023/06/22 09:01:29;;;;;;;8.50;5.17;;;;;;;;;;6167275;23;20470;-90
2023/06/22 09:03:57;;;;;;;7.33;5.73;;;;;;;;;;6168509;23;20414;-90
2023/06/22 09:06:23;;;;;;;12.23;6.20;;;;;;;;;;6168971;23;20407;-89
2023/06/22 09:08:49;;;;;;;9.93;5.97;;;;;;;;;;6172086;23;20387;-90
2023/06/22 09:11:15;;;;;;;11.80;6.33;;;;;;;;;;6169279;23;20402;-90
2023/06/22 09:13:42;;;;;;;17.30;8.17;;;;;;;;;;6170472;23;20379;-90
2023/06/22 09:16:08;;;;;;;8.93;5.87;;;;;;;;;;6194789;23;20370;-90
2023/06/22 09:18:37;;;;;;;8.70;5.03;;;;;;;;;;6170447;23;20371;-91
2023/06/22 09:21:03;;;;;;;7.53;5.70;;;;;;;;;;6171547;23;20414;-91
2023/06/22 09:23:29;;;;;;;8.17;5.77;;;;;;;;;;6172479;23;20449;-90
2023/06/22 09:25:55;;;;;;;7.73;5.93;;;;;;;;;;6168224;23;20375;-90
2023/06/22 09:28:21;;;;;;;8.40;5.80;;;;;;;;;;6168387;23;20437;-90
2023/06/22 09:30:47;;;;;;;10.50;5.47;;;;;;;;;;6170756;23;20389;-90
2023/06/22 09:33:13;;;;;;;9.37;5.70;;;;;;;;;;6169466;23;20387;-91
2023/06/22 09:35:39;;;;;;;9.30;5.60;;;;;;;;;;6171020;23;20513;-93
2023/06/22 09:38:05;;;;;;;10.40;6.00;;;;;;;;;;6176804;23;20372;-93
2023/06/22 09:40:35;;;;;;;9.67;6.47;;;;;;;;;;6172693;23;20379;-93
2023/06/22 09:43:01;;;;;;;12.03;5.83;;;;;;;;;;6174377;23;20390;-92
2023/06/22 09:45:27;;;;;;;8.33;6.10;;;;;;;;;;6174122;23;20410;-92
2023/06/22 09:47:53;;;;;;;10.17;6.10;;;;;;;;;;6176337;23;20379;-92
2023/06/22 09:50:19;;;;;;;8.53;6.33;;;;;;;;;;6172653;23;20813;-91
2023/06/22 09:52:50;;;;;;;7.97;6.60;;;;;;;;;;6173528;23;20419;-91
2023/06/22 09:55:16;;;;;;;7.87;6.60;;;;;;;;;;6172035;23;20434;-92
2023/06/22 09:57:42;;;;;;;7.13;6.43;;;;;;;;;;6170994;23;20382;-92
2023/06/22 10:00:09;;;;;;;9.77;7.10;;;;;;;;;;6170469;23;20393;-91
2023/06/22 10:02:35;;;;;;;12.37;7.40;;;;;;;;;;6170472;23;20401;-91
2023/06/22 10:05:01;;;;;;;7.67;5.20;;;;;;;;;;6168733;23;20446;-91
2023/06/22 10:07:27;;;;;;;8.70;5.90;;;;;;;;;;6170067;23;20453;-90
2023/06/22 10:09:53;;;;;;;19.43;7.33;;;;;;;;;;6170803;23;20390;-90
2023/06/22 10:12:28;;;;;;;14.07;6.50;;;;;;;;;;6169725;23;20387;-95
2023/06/22 10:14:54;;;;;;;9.80;6.53;;;;;;;;;;6197662;22;20362;-92
2023/06/22 10:17:20;;;;;;;12.30;7.37;;;;;;;;;;6171544;23;20384;-92
2023/06/22 10:19:46;;;;;;;13.13;6.27;;;;;;;;;;6170975;23;20363;-92
2023/06/22 10:22:13;;;;;;;9.23;6.03;;;;;;;;;;6171390;23;20395;-94
2023/06/22 10:24:44;;;;;;;9.33;7.17;;;;;;;;;;6171723;23;20425;-93
2023/06/22 10:27:10;;;;;;;9.60;7.00;;;;;;;;;;6172003;23;20859;-92
2023/06/22 10:29:36;;;;;;;9.73;6.20;;;;;;;;;;6171256;23;20383;-92
2023/06/22 10:32:02;;;;;;;7.97;5.93;;;;;;;;;;6176046;23;20387;-91
2023/06/22 10:34:28;;;;;;;10.30;6.30;;;;;;;;;;6178934;23;20410;-92
2023/06/22 10:36:56;;;;;;;9.13;5.83;;;;;;;;;;6177625;23;20715;-93
2023/06/22 10:39:22;;;;;;;7.20;5.67;;;;;;;;;;6181775;23;20384;-94
2023/06/22 10:41:48;;;;;;;9.40;6.67;;;;;;;;;;6172286;23;20383;-92
2023/06/22 10:44:14;;;;;;;9.00;5.87;;;;;;;;;;6175809;23;20421;-92
2023/06/22 10:46:40;;;;;;;10.80;5.73;;;;;;;;;;6171534;23;20462;-93
2023/06/22 10:49:06;;;;;;;8.00;5.70;;;;;;;;;;6172523;23;20379;-93
2023/06/22 10:51:33;;;;;;;9.37;6.27;;;;;;;;;;6172885;23;20390;-94
2023/06/22 10:54:00;;;;;;;8.40;6.50;;;;;;;;;;6172840;23;20383;-93
2023/06/22 10:56:26;;;;;;;9.17;6.00;;;;;;;;;;6171991;23;20403;-93
2023/06/22 10:58:52;;;;;;;9.67;6.33;;;;;;;;;;6175606;23;20371;-93
2023/06/22 11:01:18;;;;;;;7.30;5.57;;;;;;;;;;6172124;23;20515;-92
2023/06/22 11:03:44;;;;;;;11.77;6.90;;;;;;;;;;6173348;23;20423;-93
2023/06/22 11:06:10;;;;;;;10.07;6.37;;;;;;;;;;6170386;23;20375;-93
2023/06/22 11:08:36;;;;;;;9.90;6.20;;;;;;;;;;6173065;23;20379;-92
2023/06/22 11:11:02;;;;;;;9.67;5.43;;;;;;;;;;6169422;23;20717;-94
2023/06/22 11:13:28;;;;;;;13.77;6.70;;;;;;;;;;6172051;23;20387;-94
2023/06/22 11:15:58;;;;;;;8.73;5.87;;;;;;;;;;6170854;23;20394;-92
2023/06/22 11:18:24;;;;;;;9.03;5.50;;;;;;;;;;6173462;23;20894;-95
2023/06/22 11:20:50;;;;;;;10.57;7.10;;;;;;;;;;6171296;23;20379;-95
2023/06/22 11:23:16;;;;;;;11.10;6.03;;;;;;;;;;6171975;23;20520;-95
2023/06/22 11:25:42;;;;;;;14.50;6.20;;;;;;;;;;6171712;23;20379;-95
2023/06/22 11:28:10;;;;;;;9.47;5.97;;;;;;;;;;6172075;23;21143;-94
2023/06/22 11:30:36;;;;;;;12.07;6.30;;;;;;;;;;6175275;23;20461;-94
2023/06/22 11:33:02;;;;;;;7.30;6.23;;;;;;;;;;6171416;23;20375;-94
2023/06/22 11:35:28;;;;;;;11.43;6.20;;;;;;;;;;6171068;22;20363;-93
2023/06/22 11:37:54;;;;;;;11.07;6.27;;;;;;;;;;6171197;23;20359;-93
2023/06/22 11:40:20;;;;;;;9.50;6.33;;;;;;;;;;6175376;23;20367;-93
2023/06/22 11:42:47;;;;;;;9.30;6.90;;;;;;;;;;6170086;23;20379;-94
2023/06/22 11:45:13;;;;;;;11.43;6.67;;;;;;;;;;6173071;23;20816;-94
2023/06/22 11:47:41;;;;;;;8.33;6.40;;;;;;;;;;6170982;23;20418;-94
2023/06/22 11:50:07;;;;;;;9.07;7.33;;;;;;;;;;6176619;23;20367;-95
2023/06/22 11:52:35;;;;;;;9.60;7.37;;;;;;;;;;6172669;23;20409;-94
2023/06/22 11:55:03;;;;;;;11.90;6.47;;;;;;;;;;6174452;23;20394;-94
2023/06/22 11:57:29;;;;;;;9.00;6.10;;;;;;;;;;6171972;23;20867;-94
2023/06/22 11:59:55;;;;;;;15.40;6.57;;;;;;;;;;6170259;23;20396;-94
2023/06/22 12:02:21;;;;;;;9.90;6.53;;;;;;;;;;6134557;23;20773;-93
2023/06/22 12:04:47;;;;;;;8.90;6.47;;;;;;;;;;6112148;23;20436;-94
2023/06/22 12:07:19;;;;;;;10.70;6.63;;;;;;;;;;6110226;23;20400;-94
2023/06/22 12:09:45;;;;;;;8.93;6.13;;;;;;;;;;6109411;23;20393;-95
2023/06/22 12:12:18;;;;;;;14.33;6.53;;;;;;;;;;6108593;23;20756;-94
2023/06/22 12:14:44;;;;;;;10.27;7.13;;;;;;;;;;6115455;23;20468;-95
2023/06/22 12:17:13;;;;;;;9.10;7.33;;;;;;;;;;6113263;23;20365;-95
2023/06/22 12:19:41;;;;;;;11.70;6.90;;;;;;;;;;6134962;23;20377;-95
2023/06/22 12:22:07;;;;;;;11.63;6.40;;;;;;;;;;6110036;23;20412;-93
2023/06/22 12:24:33;;;;;;;11.53;7.10;;;;;;;;;;6112158;23;20479;-94
2023/06/22 12:26:59;;;;;;;8.10;6.87;;;;;;;;;;6114188;23;20393;-94
2023/06/22 12:29:25;;;;;;;10.57;6.90;;;;;;;;;;6113125;23;20389;-88
2023/06/22 12:31:53;;;;;;;12.30;6.90;;;;;;;;;;6108039;23;20385;-94
2023/06/22 12:34:19;;;;;;;10.97;8.87;;;;;;;;;;6167520;23;20419;-94
2023/06/22 12:36:49;;;;;;;13.80;6.93;;;;;;;;;;6175010;23;20387;-93
2023/06/22 12:39:15;;;;;;;11.50;7.73;;;;;;;;;;6175194;23;20906;-95
2023/06/22 12:41:41;;;;;;;10.30;7.20;;;;;;;;;;6173755;23;20401;-95
2023/06/22 12:44:07;;;;;;;10.13;7.67;;;;;;;;;;6172396;23;20415;-94
2023/06/22 12:46:37;;;;;;;9.33;6.80;;;;;;;;;;6172520;23;20390;-94
2023/06/22 12:49:06;;;;;;;10.10;7.73;;;;;;;;;;6175273;23;20375;-94
2023/06/22 12:51:33;;;;;;;10.27;6.87;;;;;;;;;;6175381;23;20459;-94
2023/06/22 12:53:59;;;;;;;10.70;7.80;;;;;;;;;;6178558;23;20390;-94
2023/06/22 12:56:25;;;;;;;8.43;6.63;;;;;;;;;;6174650;23;20387;-92
2023/06/22 12:58:51;;;;;;;14.17;7.10;;;;;;;;;;6168846;23;20416;-93
2023/06/22 13:01:18;;;;;;;9.60;8.27;;;;;;;;;;6167385;23;20376;-94
2023/06/22 13:03:44;;;;;;;7.50;6.80;;;;;;;;;;6168609;23;20442;-94
2023/06/22 13:06:10;;;;;;;8.57;6.73;;;;;;;;;;6166659;23;20896;-94
2023/06/22 13:08:36;;;;;;;15.97;6.60;;;;;;;;;;6165780;23;20748;-96
2023/06/22 13:11:02;;;;;;;9.53;7.00;;;;;;;;;;6167587;23;20391;-93
2023/06/22 13:13:28;;;;;;;9.93;6.70;;;;;;;;;;6165853;23;20419;-92
2023/06/22 13:15:54;;;;;;;9.40;6.90;;;;;;;;;;6165949;23;20476;-92
2023/06/22 13:18:20;;;;;;;12.00;6.80;;;;;;;;;;6166861;23;20963;-94
2023/06/22 13:20:46;;;;;;;11.03;6.93;;;;;;;;;;6168541;23;20388;-93
2023/06/22 13:23:12;;;;;;;9.37;7.70;;;;;;;;;;6165378;23;20388;-84
2023/06/22 13:25:38;;;;;;;10.07;7.40;;;;;;;;;;6166588;23;20533;-91
2023/06/22 13:28:04;;;;;;;8.63;7.13;;;;;;;;;;6164763;23;20454;-92
2023/06/22 13:30:31;;;;;;;13.47;6.80;;;;;;;;;;6171637;23;20367;-91
2023/06/22 13:32:57;;;;;;;8.50;6.77;;;;;;;;;;6171315;23;20462;-91
2023/06/22 13:35:23;;;;;;;10.60;6.77;;;;;;;;;;6172911;23;20801;-94
2023/06/22 13:37:49;;;;;;;14.23;7.07;;;;;;;;;;6170698;23;20861;-92
2023/06/22 13:40:15;;;;;;;9.30;7.47;;;;;;;;;;6174491;23;20462;-93
2023/06/22 13:42:41;;;;;;;12.63;7.03;;;;;;;;;;6175729;23;20375;-94
2023/06/22 13:45:08;;;;;;;11.77;6.70;;;;;;;;;;6174345;23;20415;-93
2023/06/22 13:47:34;;;;;;;11.87;7.00;;;;;;;;;;6175899;23;20387;-92
2023/06/22 13:50:00;;;;;;;11.63;7.30;;;;;;;;;;6173283;23;20855;-92
2023/06/22 13:52:26;;;;;;;12.50;7.23;;;;;;;;;;6175449;23;20393;-93
2023/06/22 13:54:52;;;;;;;9.53;6.80;;;;;;;;;;6171216;23;20394;-93
2023/06/22 13:57:18;;;;;;;13.03;7.53;;;;;;;;;;6175436;23;20367;-93
2023/06/22 13:59:44;;;;;;;7.90;6.67;;;;;;;;;;6165315;23;20496;-93
2023/06/22 14:02:10;;;;;;;8.77;6.80;;;;;;;;;;6140182;23;20434;-92
2023/06/22 14:04:36;;;;;;;11.27;6.97;;;;;;;;;;6140299;23;20420;-93
2023/06/22 14:07:02;;;;;;;9.00;7.20;;;;;;;;;;6140293;23;20604;-94
2023/06/22 14:09:28;;;;;;;13.50;6.63;;;;;;;;;;6139292;23;20376;-93
2023/06/22 14:11:55;;;;;;;11.73;7.70;;;;;;;;;;6138747;23;20450;-93
2023/06/22 14:14:26;;;;;;;9.10;6.60;;;;;;;;;;6141844;23;20915;-93
2023/06/22 14:16:52;;;;;;;8.20;6.30;;;;;;;;;;6163695;23;20419;-93
2023/06/22 14:19:18;;;;;;;11.67;6.80;;;;;;;;;;6137171;23;20377;-93
2023/06/22 14:21:44;;;;;;;7.30;5.90;;;;;;;;;;6109439;23;20381;-93
2023/06/22 14:24:10;;;;;;;9.57;5.40;;;;;;;;;;6114202;23;20432;-93
2023/06/22 14:26:36;;;;;;;8.87;6.70;;;;;;;;;;6108008;23;20436;-93
2023/06/22 14:29:03;;;;;;;8.50;6.13;;;;;;;;;;6110912;23;20389;-93
2023/06/22 14:31:29;;;;;;;11.67;7.17;;;;;;;;;;6134849;23;20404;-96
2023/06/22 14:33:55;;;;;;;10.33;5.80;;;;;;;;;;6142038;23;20380;-94
2023/06/22 14:36:22;;;;;;;13.13;5.47;;;;;;;;;;6164490;23;20390;-94
2023/06/22 14:38:48;;;;;;;12.03;5.90;;;;;;;;;;6141055;23;20376;-95